Forside
METAR-TAF:

METAR-TAF

Lufthavne :

Dubuque, Iowa, USA

Breddekreds: 42-23-52N, længdekreds: 090-42-13W, højde: 328 m

Aktuelle vejr

Denne rapport blev lavet for 12 minutter siden, kl. 01:53 UTC
Vind 8 kt fra nordvest
Temperatur -6°C
Fugtighed 68%
Tryk 1019 hPa
Sigt: 16.1 km
skyfri

METAR: KDBQ 280153Z 31008KT 10SM CLR M06/M11 A3008 RMK AO2 SLP204 T10611106

Tid: 20:05 (02:05 UTC)

Vejrudsigter

Denne rapport blev lavet for 2 timer og 28 minutter siden, kl. 23:37 UTC
Foreløbig gælder fra 28 på 00 UTC til 28 på 24 UTC
Vind 7 kt fra nordnordvest
Sigt: 10 km
Brudte skyer i en højde af 15000 ft
Fra 28 på 1000 UTC
Vind 4 kt fra varierende retninger
Sigt: 10 km
Overskyet i en højde af 3000 ft
let snebyger
Fra 28 på 1400 UTC
Vind 8 kt fra nordnordvest
Sigt: 10 km
Brudte skyer i en højde af 3500 ft
Fra 28 på 1900 UTC
Vind 10 kt fra nordvest
Sigt: 10 km
Spredte skyer i en højde af 3500 ft

TAF: KDBQ 272337Z 2800/2824 33007KT P6SM BKN150 FM281000 VRB04KT P6SM -SHSN OVC030 FM281400 33008KT P6SM BKN035 FM281900 32010KT P6SM SCT035

Vejrobservationer og prognoser fra mere end 4000 lufthavne (METAR og TAF).

De gule og røde prikker repræsenterer de meteorologiske stationer.

Flyt musen over at se navnet på stationen.

Så klik over at se vejr observationer og prognoser.

At skifte det kort: Klik på de grønne knapper med et sort kors for at zoome ind; på den grønne knap med en bindestreg for at zoome ud; eller på de grønne pile for tilstødende kort.


METAR-TAF: